Ana Sayfa
METAR-TAF:

METAR-TAF

Havaalanları :

Clearfield-Lawrence Airport

Clearfield, Pensilvanya, Amerika Birleşik Devletleri

Enlem: 41-02-48N, Boylam: 078-24-42W, yükseklik: 462 m

Güncel hava durumu gözlemi

Rapor saat 23:54 UTC de 11 dakika önce yapıldı.
Rüzgar doğu/güneydoğudan 4 kt
Sıcaklık -2°C
Nem 50%
Basınç 1032 hPa
Görüş mesafesi: 16.1 km
Açık gökyüzü

METAR: KFIG 122354Z AUTO 11004KT 10SM CLR M02/M11 A3047 RMK AO2 SLP345 T10221111 10006 21033 55008

Saat: 19:05 (00:05 UTC)


TAF: eksik

4.000'den fazla havaalanı için hava durumu gözlemleri ve tahminleri (METAR ve TAF raporları).

Kullanılabilir istasyonlar harita üzerinde sarı ve kırmızı noktalarla gösterilir.

İstasyonun adını görmek için fareyi noktanın üzerinde gezdirin.

Sonrasında hava gözlem ve tahminlerini görmek için tıklayın.

Haritayı değiştirmek için: yaklaştırmak için siyah artı işaretli yeşil düğmeye ve uzaklaştırmak için de eksi işaretli düğmeye hızla tıklayın; bitişik haritalar için yeşil okları kullanın.


METAR-TAF: